sensor_id;sensor_type;location;lat;lon;timestamp;P1;durP1;ratioP1;P2;durP2;ratioP2
7665;SDS011;3875;46.562;4.898;2023-04-28T00:01:15;3.20;;;2.10;;
7665;SDS011;3875;46.562;4.898;2023-04-28T00:03:41;3.73;;;2.20;;
7665;SDS011;3875;46.562;4.898;2023-04-28T00:06:07;2.50;;;2.27;;
7665;SDS011;3875;46.562;4.898;2023-04-28T00:08:33;4.17;;;2.30;;
7665;SDS011;3875;46.562;4.898;2023-04-28T00:10:59;3.97;;;2.53;;
7665;SDS011;3875;46.562;4.898;2023-04-28T00:13:25;4.00;;;2.30;;
7665;SDS011;3875;46.562;4.898;2023-04-28T00:15:51;5.70;;;2.37;;
7665;SDS011;3875;46.562;4.898;2023-04-28T00:18:17;5.20;;;2.40;;
7665;SDS011;3875;46.562;4.898;2023-04-28T00:20:43;3.87;;;2.50;;
7665;SDS011;3875;46.562;4.898;2023-04-28T00:23:09;2.50;;;2.30;;
7665;SDS011;3875;46.562;4.898;2023-04-28T00:25:34;4.33;;;2.50;;
7665;SDS011;3875;46.562;4.898;2023-04-28T00:28:00;3.07;;;2.20;;
7665;SDS011;3875;46.562;4.898;2023-04-28T00:30:28;3.60;;;2.30;;
7665;SDS011;3875;46.562;4.898;2023-04-28T00:32:54;3.23;;;2.10;;
7665;SDS011;3875;46.562;4.898;2023-04-28T00:35:20;3.47;;;2.30;;
7665;SDS011;3875;46.562;4.898;2023-04-28T00:37:46;3.43;;;2.40;;
7665;SDS011;3875;46.562;4.898;2023-04-28T00:40:12;2.93;;;2.17;;
7665;SDS011;3875;46.562;4.898;2023-04-28T00:42:37;2.57;;;2.30;;
7665;SDS011;3875;46.562;4.898;2023-04-28T00:45:03;5.97;;;2.30;;
7665;SDS011;3875;46.562;4.898;2023-04-28T00:47:35;6.10;;;2.23;;
7665;SDS011;3875;46.562;4.898;2023-04-28T00:50:02;4.40;;;2.60;;
7665;SDS011;3875;46.562;4.898;2023-04-28T00:52:31;3.33;;;2.23;;
7665;SDS011;3875;46.562;4.898;2023-04-28T00:54:57;5.83;;;2.83;;
7665;SDS011;3875;46.562;4.898;2023-04-28T00:57:23;4.70;;;3.00;;
7665;SDS011;3875;46.562;4.898;2023-04-28T00:59:49;5.30;;;3.20;;
7665;SDS011;3875;46.562;4.898;2023-04-28T01:02:14;6.57;;;3.60;;
7665;SDS011;3875;46.562;4.898;2023-04-28T01:04:44;3.70;;;3.20;;
7665;SDS011;3875;46.562;4.898;2023-04-28T01:07:10;7.77;;;3.73;;
7665;SDS011;3875;46.562;4.898;2023-04-28T01:09:36;5.77;;;3.53;;
7665;SDS011;3875;46.562;4.898;2023-04-28T01:12:02;6.53;;;3.60;;
7665;SDS011;3875;46.562;4.898;2023-04-28T01:14:27;4.33;;;3.30;;
7665;SDS011;3875;46.562;4.898;2023-04-28T01:16:53;8.47;;;3.87;;
7665;SDS011;3875;46.562;4.898;2023-04-28T01:19:20;6.07;;;3.60;;
7665;SDS011;3875;46.562;4.898;2023-04-28T01:21:46;6.63;;;4.27;;
7665;SDS011;3875;46.562;4.898;2023-04-28T01:24:13;8.13;;;4.03;;
7665;SDS011;3875;46.562;4.898;2023-04-28T01:26:38;7.50;;;4.60;;
7665;SDS011;3875;46.562;4.898;2023-04-28T01:29:04;8.33;;;4.30;;
7665;SDS011;3875;46.562;4.898;2023-04-28T01:31:30;10.00;;;4.77;;
7665;SDS011;3875;46.562;4.898;2023-04-28T01:33:56;7.87;;;4.67;;
7665;SDS011;3875;46.562;4.898;2023-04-28T01:36:21;7.07;;;4.20;;
7665;SDS011;3875;46.562;4.898;2023-04-28T01:38:48;8.73;;;4.20;;
7665;SDS011;3875;46.562;4.898;2023-04-28T01:41:14;7.40;;;4.90;;
7665;SDS011;3875;46.562;4.898;2023-04-28T01:43:40;8.47;;;4.73;;
7665;SDS011;3875;46.562;4.898;2023-04-28T01:46:07;6.10;;;4.57;;
7665;SDS011;3875;46.562;4.898;2023-04-28T01:48:33;9.93;;;4.20;;
7665;SDS011;3875;46.562;4.898;2023-04-28T01:50:59;5.30;;;3.80;;
7665;SDS011;3875;46.562;4.898;2023-04-28T01:53:25;6.00;;;3.77;;
7665;SDS011;3875;46.562;4.898;2023-04-28T01:55:51;6.47;;;4.17;;
7665;SDS011;3875;46.562;4.898;2023-04-28T01:58:17;3.93;;;3.50;;
7665;SDS011;3875;46.562;4.898;2023-04-28T02:00:43;6.57;;;3.90;;
7665;SDS011;3875;46.562;4.898;2023-04-28T02:03:09;5.90;;;4.00;;
7665;SDS011;3875;46.562;4.898;2023-04-28T02:05:35;6.23;;;3.33;;
7665;SDS011;3875;46.562;4.898;2023-04-28T02:08:01;5.10;;;3.30;;
7665;SDS011;3875;46.562;4.898;2023-04-28T02:10:27;4.57;;;3.80;;
7665;SDS011;3875;46.562;4.898;2023-04-28T02:12:53;6.17;;;4.13;;
7665;SDS011;3875;46.562;4.898;2023-04-28T02:15:19;5.57;;;3.93;;
7665;SDS011;3875;46.562;4.898;2023-04-28T02:17:45;5.50;;;4.27;;
7665;SDS011;3875;46.562;4.898;2023-04-28T02:20:11;4.03;;;3.63;;
7665;SDS011;3875;46.562;4.898;2023-04-28T02:22:38;5.73;;;4.20;;
7665;SDS011;3875;46.562;4.898;2023-04-28T02:25:04;8.83;;;4.03;;
7665;SDS011;3875;46.562;4.898;2023-04-28T02:27:31;7.13;;;3.77;;
7665;SDS011;3875;46.562;4.898;2023-04-28T02:29:57;4.73;;;2.63;;
7665;SDS011;3875;46.562;4.898;2023-04-28T02:32:22;5.40;;;3.33;;
7665;SDS011;3875;46.562;4.898;2023-04-28T02:34:51;3.70;;;2.60;;
7665;SDS011;3875;46.562;4.898;2023-04-28T02:37:18;7.00;;;2.50;;
7665;SDS011;3875;46.562;4.898;2023-04-28T02:39:44;4.63;;;2.33;;
7665;SDS011;3875;46.562;4.898;2023-04-28T02:42:10;2.50;;;2.23;;
7665;SDS011;3875;46.562;4.898;2023-04-28T02:44:36;4.77;;;2.20;;
7665;SDS011;3875;46.562;4.898;2023-04-28T02:47:01;3.57;;;2.23;;
7665;SDS011;3875;46.562;4.898;2023-04-28T02:49:27;4.57;;;2.27;;
7665;SDS011;3875;46.562;4.898;2023-04-28T02:51:52;3.43;;;2.20;;
7665;SDS011;3875;46.562;4.898;2023-04-28T02:54:18;2.97;;;2.27;;
7665;SDS011;3875;46.562;4.898;2023-04-28T02:56:51;2.93;;;2.60;;
7665;SDS011;3875;46.562;4.898;2023-04-28T02:59:18;2.37;;;2.17;;
7665;SDS011;3875;46.562;4.898;2023-04-28T03:01:44;2.70;;;2.47;;
7665;SDS011;3875;46.562;4.898;2023-04-28T03:04:10;3.63;;;2.50;;
7665;SDS011;3875;46.562;4.898;2023-04-28T03:06:36;4.03;;;2.23;;
7665;SDS011;3875;46.562;4.898;2023-04-28T03:09:01;3.37;;;2.10;;
7665;SDS011;3875;46.562;4.898;2023-04-28T03:11:28;3.70;;;2.30;;
7665;SDS011;3875;46.562;4.898;2023-04-28T03:13:53;3.80;;;2.23;;
7665;SDS011;3875;46.562;4.898;2023-04-28T03:16:19;2.33;;;2.00;;
7665;SDS011;3875;46.562;4.898;2023-04-28T03:18:45;2.73;;;2.53;;
7665;SDS011;3875;46.562;4.898;2023-04-28T03:21:11;2.53;;;2.33;;
7665;SDS011;3875;46.562;4.898;2023-04-28T03:23:36;2.97;;;2.33;;
7665;SDS011;3875;46.562;4.898;2023-04-28T03:26:02;3.07;;;2.53;;
7665;SDS011;3875;46.562;4.898;2023-04-28T03:28:28;4.73;;;2.43;;
7665;SDS011;3875;46.562;4.898;2023-04-28T03:30:53;3.03;;;2.40;;
7665;SDS011;3875;46.562;4.898;2023-04-28T03:33:19;5.47;;;2.47;;
7665;SDS011;3875;46.562;4.898;2023-04-28T03:35:45;6.67;;;2.77;;
7665;SDS011;3875;46.562;4.898;2023-04-28T03:38:11;2.80;;;2.60;;
7665;SDS011;3875;46.562;4.898;2023-04-28T03:40:36;4.27;;;2.63;;
7665;SDS011;3875;46.562;4.898;2023-04-28T03:43:02;5.73;;;2.50;;
7665;SDS011;3875;46.562;4.898;2023-04-28T03:45:28;2.70;;;2.30;;
7665;SDS011;3875;46.562;4.898;2023-04-28T03:47:53;3.97;;;2.30;;
7665;SDS011;3875;46.562;4.898;2023-04-28T03:50:19;2.50;;;2.20;;
7665;SDS011;3875;46.562;4.898;2023-04-28T03:52:45;5.83;;;2.70;;
7665;SDS011;3875;46.562;4.898;2023-04-28T03:55:10;3.57;;;2.23;;
7665;SDS011;3875;46.562;4.898;2023-04-28T03:57:36;6.00;;;2.70;;
7665;SDS011;3875;46.562;4.898;2023-04-28T04:00:02;3.17;;;2.43;;
7665;SDS011;3875;46.562;4.898;2023-04-28T04:02:28;2.53;;;2.33;;
7665;SDS011;3875;46.562;4.898;2023-04-28T04:04:54;2.30;;;2.10;;
7665;SDS011;3875;46.562;4.898;2023-04-28T04:07:20;2.90;;;2.60;;
7665;SDS011;3875;46.562;4.898;2023-04-28T04:09:47;3.23;;;2.47;;
7665;SDS011;3875;46.562;4.898;2023-04-28T04:12:12;2.73;;;2.53;;
7665;SDS011;3875;46.562;4.898;2023-04-28T04:14:38;3.73;;;2.70;;
7665;SDS011;3875;46.562;4.898;2023-04-28T04:17:04;4.37;;;2.70;;
7665;SDS011;3875;46.562;4.898;2023-04-28T04:19:30;4.07;;;2.57;;
7665;SDS011;3875;46.562;4.898;2023-04-28T04:21:56;3.20;;;2.43;;
7665;SDS011;3875;46.562;4.898;2023-04-28T04:24:21;4.73;;;2.53;;
7665;SDS011;3875;46.562;4.898;2023-04-28T04:26:47;4.03;;;2.70;;
7665;SDS011;3875;46.562;4.898;2023-04-28T04:29:13;2.80;;;2.47;;
7665;SDS011;3875;46.562;4.898;2023-04-28T04:31:38;3.30;;;2.67;;
7665;SDS011;3875;46.562;4.898;2023-04-28T04:34:04;4.00;;;2.73;;
7665;SDS011;3875;46.562;4.898;2023-04-28T04:36:30;4.40;;;2.60;;
7665;SDS011;3875;46.562;4.898;2023-04-28T04:38:57;6.77;;;2.60;;
7665;SDS011;3875;46.562;4.898;2023-04-28T04:41:22;5.23;;;2.70;;
7665;SDS011;3875;46.562;4.898;2023-04-28T04:43:50;4.13;;;2.83;;
7665;SDS011;3875;46.562;4.898;2023-04-28T04:46:15;3.53;;;2.80;;
7665;SDS011;3875;46.562;4.898;2023-04-28T04:48:41;3.67;;;2.80;;
7665;SDS011;3875;46.562;4.898;2023-04-28T04:51:07;3.80;;;2.43;;
7665;SDS011;3875;46.562;4.898;2023-04-28T04:53:33;7.30;;;2.90;;
7665;SDS011;3875;46.562;4.898;2023-04-28T04:55:59;3.23;;;2.30;;
7665;SDS011;3875;46.562;4.898;2023-04-28T04:58:25;4.37;;;2.33;;
7665;SDS011;3875;46.562;4.898;2023-04-28T05:00:51;3.47;;;2.40;;
7665;SDS011;3875;46.562;4.898;2023-04-28T05:03:16;3.93;;;2.37;;
7665;SDS011;3875;46.562;4.898;2023-04-28T05:05:42;3.07;;;2.53;;
7665;SDS011;3875;46.562;4.898;2023-04-28T05:08:10;3.47;;;2.37;;
7665;SDS011;3875;46.562;4.898;2023-04-28T05:10:36;3.10;;;2.37;;
7665;SDS011;3875;46.562;4.898;2023-04-28T05:13:01;2.60;;;2.20;;
7665;SDS011;3875;46.562;4.898;2023-04-28T05:15:27;5.00;;;2.10;;
7665;SDS011;3875;46.562;4.898;2023-04-28T05:17:53;3.63;;;2.37;;
7665;SDS011;3875;46.562;4.898;2023-04-28T05:20:19;2.30;;;2.10;;
7665;SDS011;3875;46.562;4.898;2023-04-28T05:22:44;2.77;;;2.40;;
7665;SDS011;3875;46.562;4.898;2023-04-28T05:25:10;3.37;;;2.60;;
7665;SDS011;3875;46.562;4.898;2023-04-28T05:27:43;3.60;;;2.93;;
7665;SDS011;3875;46.562;4.898;2023-04-28T05:30:09;2.60;;;2.40;;
7665;SDS011;3875;46.562;4.898;2023-04-28T05:32:35;5.10;;;2.70;;
7665;SDS011;3875;46.562;4.898;2023-04-28T05:35:01;4.00;;;2.67;;
7665;SDS011;3875;46.562;4.898;2023-04-28T05:37:27;4.07;;;2.27;;
7665;SDS011;3875;46.562;4.898;2023-04-28T05:39:53;4.30;;;2.63;;
7665;SDS011;3875;46.562;4.898;2023-04-28T05:42:19;3.23;;;2.33;;
7665;SDS011;3875;46.562;4.898;2023-04-28T05:44:45;2.97;;;2.63;;
7665;SDS011;3875;46.562;4.898;2023-04-28T05:47:10;3.03;;;2.43;;
7665;SDS011;3875;46.562;4.898;2023-04-28T05:52:44;4.20;;;2.37;;
7665;SDS011;3875;46.562;4.898;2023-04-28T05:55:39;3.10;;;2.43;;
7665;SDS011;3875;46.562;4.898;2023-04-28T05:58:15;3.37;;;2.40;;
7665;SDS011;3875;46.562;4.898;2023-04-28T06:00:49;4.80;;;3.13;;
7665;SDS011;3875;46.562;4.898;2023-04-28T06:03:24;2.63;;;2.40;;
7665;SDS011;3875;46.562;4.898;2023-04-28T06:06:06;4.37;;;2.80;;
7665;SDS011;3875;46.562;4.898;2023-04-28T06:08:43;3.80;;;2.53;;
7665;SDS011;3875;46.562;4.898;2023-04-28T06:14:52;4.57;;;2.50;;
7665;SDS011;3875;46.562;4.898;2023-04-28T06:17:26;7.30;;;2.60;;
7665;SDS011;3875;46.562;4.898;2023-04-28T06:20:21;3.90;;;2.53;;
7665;SDS011;3875;46.562;4.898;2023-04-28T06:23:03;2.53;;;2.33;;
7665;SDS011;3875;46.562;4.898;2023-04-28T06:28:36;2.70;;;2.50;;
7665;SDS011;3875;46.562;4.898;2023-04-28T06:37:31;7.67;;;2.53;;
7665;SDS011;3875;46.562;4.898;2023-04-28T06:40:02;3.70;;;2.70;;
7665;SDS011;3875;46.562;4.898;2023-04-28T06:42:28;3.23;;;2.70;;
7665;SDS011;3875;46.562;4.898;2023-04-28T06:44:57;5.57;;;3.27;;
7665;SDS011;3875;46.562;4.898;2023-04-28T07:09:30;5.90;;;2.80;;
7665;SDS011;3875;46.562;4.898;2023-04-28T07:15:59;4.83;;;2.80;;
7665;SDS011;3875;46.562;4.898;2023-04-28T07:35:54;4.33;;;2.70;;
7665;SDS011;3875;46.562;4.898;2023-04-28T07:58:30;5.77;;;2.80;;
7665;SDS011;3875;46.562;4.898;2023-04-28T08:08:13;6.60;;;2.90;;
7665;SDS011;3875;46.562;4.898;2023-04-28T08:36:27;4.53;;;2.60;;
7665;SDS011;3875;46.562;4.898;2023-04-28T08:46:23;5.47;;;2.73;;
7665;SDS011;3875;46.562;4.898;2023-04-28T08:49:28;6.57;;;3.87;;
7665;SDS011;3875;46.562;4.898;2023-04-28T08:52:11;6.53;;;4.07;;
7665;SDS011;3875;46.562;4.898;2023-04-28T08:58:17;8.13;;;2.90;;
7665;SDS011;3875;46.562;4.898;2023-04-28T09:01:07;6.07;;;2.83;;
7665;SDS011;3875;46.562;4.898;2023-04-28T09:03:59;6.43;;;3.17;;
7665;SDS011;3875;46.562;4.898;2023-04-28T09:06:55;3.97;;;2.53;;
7665;SDS011;3875;46.562;4.898;2023-04-28T09:12:22;6.57;;;2.80;;
7665;SDS011;3875;46.562;4.898;2023-04-28T09:19:03;4.82;;;2.60;;
7665;SDS011;3875;46.562;4.898;2023-04-28T09:30:53;4.93;;;2.77;;
7665;SDS011;3875;46.562;4.898;2023-04-28T09:33:33;3.67;;;2.77;;
7665;SDS011;3875;46.562;4.898;2023-04-28T09:38:58;5.33;;;2.70;;
7665;SDS011;3875;46.562;4.898;2023-04-28T09:41:45;4.03;;;2.80;;
7665;SDS011;3875;46.562;4.898;2023-04-28T09:44:25;7.40;;;2.50;;
7665;SDS011;3875;46.562;4.898;2023-04-28T09:47:23;3.40;;;2.20;;
7665;SDS011;3875;46.562;4.898;2023-04-28T09:50:20;3.03;;;2.40;;
7665;SDS011;3875;46.562;4.898;2023-04-28T09:53:29;3.10;;;2.63;;
7665;SDS011;3875;46.562;4.898;2023-04-28T09:59:30;5.57;;;2.63;;
7665;SDS011;3875;46.562;4.898;2023-04-28T10:05:09;3.87;;;2.20;;
7665;SDS011;3875;46.562;4.898;2023-04-28T10:18:26;3.10;;;2.80;;
7665;SDS011;3875;46.562;4.898;2023-04-28T10:21:08;9.03;;;2.70;;
7665;SDS011;3875;46.562;4.898;2023-04-28T10:23:57;4.90;;;2.50;;
7665;SDS011;3875;46.562;4.898;2023-04-28T10:27:06;5.37;;;2.63;;
7665;SDS011;3875;46.562;4.898;2023-04-28T10:29:35;3.27;;;2.33;;
7665;SDS011;3875;46.562;4.898;2023-04-28T10:32:23;4.27;;;2.70;;
7665;SDS011;3875;46.562;4.898;2023-04-28T10:40:47;6.60;;;2.40;;
7665;SDS011;3875;46.562;4.898;2023-04-28T10:53:07;5.57;;;2.30;;
7665;SDS011;3875;46.562;4.898;2023-04-28T10:55:39;3.20;;;2.37;;
7665;SDS011;3875;46.562;4.898;2023-04-28T10:58:35;2.57;;;2.07;;
7665;SDS011;3875;46.562;4.898;2023-04-28T11:04:16;3.67;;;2.50;;
7665;SDS011;3875;46.562;4.898;2023-04-28T11:07:07;5.83;;;2.80;;
7665;SDS011;3875;46.562;4.898;2023-04-28T11:09:53;2.53;;;2.33;;
7665;SDS011;3875;46.562;4.898;2023-04-28T11:15:22;3.70;;;2.70;;
7665;SDS011;3875;46.562;4.898;2023-04-28T11:21:05;4.60;;;2.83;;
7665;SDS011;3875;46.562;4.898;2023-04-28T11:27:24;2.47;;;2.10;;
7665;SDS011;3875;46.562;4.898;2023-04-28T11:30:34;3.63;;;2.50;;
7665;SDS011;3875;46.562;4.898;2023-04-28T11:33:33;3.10;;;2.30;;
7665;SDS011;3875;46.562;4.898;2023-04-28T11:42:22;5.23;;;2.03;;
7665;SDS011;3875;46.562;4.898;2023-04-28T11:44:55;2.90;;;2.03;;
7665;SDS011;3875;46.562;4.898;2023-04-28T11:47:30;4.33;;;1.87;;
7665;SDS011;3875;46.562;4.898;2023-04-28T11:53:16;3.70;;;2.27;;
7665;SDS011;3875;46.562;4.898;2023-04-28T12:03:17;2.33;;;1.80;;
7665;SDS011;3875;46.562;4.898;2023-04-28T12:05:51;1.87;;;1.77;;
7665;SDS011;3875;46.562;4.898;2023-04-28T12:18:36;3.53;;;1.90;;
7665;SDS011;3875;46.562;4.898;2023-04-28T12:21:38;3.00;;;2.00;;
7665;SDS011;3875;46.562;4.898;2023-04-28T12:24:25;2.13;;;1.70;;
7665;SDS011;3875;46.562;4.898;2023-04-28T12:27:12;3.10;;;1.80;;
7665;SDS011;3875;46.562;4.898;2023-04-28T12:29:58;4.53;;;1.97;;
7665;SDS011;3875;46.562;4.898;2023-04-28T12:36:20;1.90;;;1.60;;
7665;SDS011;3875;46.562;4.898;2023-04-28T12:39:05;3.27;;;1.93;;
7665;SDS011;3875;46.562;4.898;2023-04-28T12:48:06;2.33;;;1.87;;
7665;SDS011;3875;46.562;4.898;2023-04-28T12:56:54;1.70;;;1.50;;
7665;SDS011;3875;46.562;4.898;2023-04-28T13:05:59;2.47;;;1.60;;
7665;SDS011;3875;46.562;4.898;2023-04-28T13:08:47;2.20;;;1.70;;
7665;SDS011;3875;46.562;4.898;2023-04-28T13:11:47;3.80;;;1.50;;
7665;SDS011;3875;46.562;4.898;2023-04-28T13:14:45;2.20;;;2.00;;
7665;SDS011;3875;46.562;4.898;2023-04-28T13:19:59;3.60;;;1.50;;
7665;SDS011;3875;46.562;4.898;2023-04-28T13:22:40;2.13;;;1.47;;
7665;SDS011;3875;46.562;4.898;2023-04-28T13:25:16;2.17;;;1.60;;
7665;SDS011;3875;46.562;4.898;2023-04-28T13:27:56;3.77;;;1.67;;
7665;SDS011;3875;46.562;4.898;2023-04-28T13:30:56;4.70;;;1.90;;
7665;SDS011;3875;46.562;4.898;2023-04-28T13:33:52;3.07;;;1.80;;
7665;SDS011;3875;46.562;4.898;2023-04-28T13:39:45;2.60;;;1.40;;
7665;SDS011;3875;46.562;4.898;2023-04-28T13:43:12;2.17;;;1.23;;
7665;SDS011;3875;46.562;4.898;2023-04-28T13:52:08;1.47;;;1.27;;
7665;SDS011;3875;46.562;4.898;2023-04-28T13:58:22;2.60;;;1.60;;
7665;SDS011;3875;46.562;4.898;2023-04-28T14:08:52;3.20;;;1.50;;
7665;SDS011;3875;46.562;4.898;2023-04-28T14:12:10;1.65;;;1.55;;
7665;SDS011;3875;46.562;4.898;2023-04-28T14:15:31;2.47;;;1.30;;
7665;SDS011;3875;46.562;4.898;2023-04-28T14:18:49;1.70;;;1.20;;
7665;SDS011;3875;46.562;4.898;2023-04-28T14:25:02;1.65;;;1.40;;
7665;SDS011;3875;46.562;4.898;2023-04-28T14:30:53;2.00;;;1.30;;
7665;SDS011;3875;46.562;4.898;2023-04-28T14:33:48;2.37;;;1.70;;
7665;SDS011;3875;46.562;4.898;2023-04-28T14:36:25;4.27;;;1.83;;
7665;SDS011;3875;46.562;4.898;2023-04-28T14:39:15;1.15;;;1.10;;
7665;SDS011;3875;46.562;4.898;2023-04-28T14:41:53;2.40;;;1.20;;
7665;SDS011;3875;46.562;4.898;2023-04-28T14:44:40;1.73;;;1.30;;
7665;SDS011;3875;46.562;4.898;2023-04-28T14:47:17;2.07;;;1.30;;
7665;SDS011;3875;46.562;4.898;2023-04-28T14:49:55;2.03;;;1.20;;
7665;SDS011;3875;46.562;4.898;2023-04-28T14:52:24;1.43;;;1.33;;
7665;SDS011;3875;46.562;4.898;2023-04-28T14:54:57;2.40;;;1.63;;
7665;SDS011;3875;46.562;4.898;2023-04-28T14:57:50;2.20;;;1.38;;
7665;SDS011;3875;46.562;4.898;2023-04-28T15:03:16;2.90;;;1.53;;
7665;SDS011;3875;46.562;4.898;2023-04-28T15:05:42;4.65;;;1.55;;
7665;SDS011;3875;46.562;4.898;2023-04-28T15:08:13;1.50;;;1.40;;
7665;SDS011;3875;46.562;4.898;2023-04-28T15:10:45;2.13;;;1.50;;
7665;SDS011;3875;46.562;4.898;2023-04-28T15:13:21;1.65;;;1.33;;
7665;SDS011;3875;46.562;4.898;2023-04-28T15:16:16;3.63;;;1.40;;
7665;SDS011;3875;46.562;4.898;2023-04-28T15:18:42;3.75;;;1.48;;
7665;SDS011;3875;46.562;4.898;2023-04-28T15:21:08;2.15;;;1.55;;
7665;SDS011;3875;46.562;4.898;2023-04-28T15:23:36;3.27;;;1.47;;
7665;SDS011;3875;46.562;4.898;2023-04-28T15:26:07;5.87;;;1.83;;
7665;SDS011;3875;46.562;4.898;2023-04-28T15:28:35;1.93;;;1.50;;
7665;SDS011;3875;46.562;4.898;2023-04-28T15:31:02;5.53;;;1.50;;
7665;SDS011;3875;46.562;4.898;2023-04-28T15:33:28;3.55;;;1.83;;
7665;SDS011;3875;46.562;4.898;2023-04-28T15:35:54;2.50;;;1.40;;
7665;SDS011;3875;46.562;4.898;2023-04-28T15:38:20;4.22;;;1.20;;
7665;SDS011;3875;46.562;4.898;2023-04-28T15:40:53;2.10;;;1.53;;
7665;SDS011;3875;46.562;4.898;2023-04-28T15:43:21;1.40;;;1.30;;
7665;SDS011;3875;46.562;4.898;2023-04-28T15:45:47;2.77;;;1.47;;
7665;SDS011;3875;46.562;4.898;2023-04-28T15:48:13;3.23;;;1.30;;
7665;SDS011;3875;46.562;4.898;2023-04-28T15:50:39;5.70;;;1.47;;
7665;SDS011;3875;46.562;4.898;2023-04-28T15:53:08;1.70;;;1.30;;
7665;SDS011;3875;46.562;4.898;2023-04-28T15:55:47;2.70;;;1.43;;
7665;SDS011;3875;46.562;4.898;2023-04-28T15:58:15;4.47;;;1.50;;
7665;SDS011;3875;46.562;4.898;2023-04-28T16:00:41;3.23;;;1.63;;
7665;SDS011;3875;46.562;4.898;2023-04-28T16:03:11;1.43;;;1.33;;
7665;SDS011;3875;46.562;4.898;2023-04-28T16:05:37;2.10;;;1.40;;
7665;SDS011;3875;46.562;4.898;2023-04-28T16:08:05;2.97;;;1.47;;
7665;SDS011;3875;46.562;4.898;2023-04-28T16:10:32;2.67;;;1.40;;
7665;SDS011;3875;46.562;4.898;2023-04-28T16:13:02;2.40;;;1.60;;
7665;SDS011;3875;46.562;4.898;2023-04-28T16:15:37;1.53;;;1.43;;
7665;SDS011;3875;46.562;4.898;2023-04-28T16:18:03;1.50;;;1.40;;
7665;SDS011;3875;46.562;4.898;2023-04-28T16:20:29;3.93;;;1.60;;
7665;SDS011;3875;46.562;4.898;2023-04-28T16:22:55;1.60;;;1.50;;
7665;SDS011;3875;46.562;4.898;2023-04-28T16:25:21;1.73;;;1.30;;
7665;SDS011;3875;46.562;4.898;2023-04-28T16:27:54;4.03;;;1.40;;
7665;SDS011;3875;46.562;4.898;2023-04-28T16:30:22;2.40;;;1.50;;
7665;SDS011;3875;46.562;4.898;2023-04-28T16:32:49;2.67;;;1.47;;
7665;SDS011;3875;46.562;4.898;2023-04-28T16:35:22;4.97;;;1.70;;
7665;SDS011;3875;46.562;4.898;2023-04-28T16:37:53;2.22;;;1.80;;
7665;SDS011;3875;46.562;4.898;2023-04-28T16:40:24;2.67;;;1.60;;
7665;SDS011;3875;46.562;4.898;2023-04-28T16:42:49;4.20;;;1.67;;
7665;SDS011;3875;46.562;4.898;2023-04-28T16:45:15;2.17;;;1.70;;
7665;SDS011;3875;46.562;4.898;2023-04-28T16:47:43;3.77;;;1.87;;
7665;SDS011;3875;46.562;4.898;2023-04-28T16:50:18;2.90;;;1.67;;
7665;SDS011;3875;46.562;4.898;2023-04-28T16:52:51;2.17;;;1.50;;
7665;SDS011;3875;46.562;4.898;2023-04-28T16:55:17;1.70;;;1.40;;
7665;SDS011;3875;46.562;4.898;2023-04-28T16:57:45;4.33;;;1.70;;
7665;SDS011;3875;46.562;4.898;2023-04-28T17:00:11;3.50;;;1.53;;
7665;SDS011;3875;46.562;4.898;2023-04-28T17:02:37;3.00;;;1.67;;
7665;SDS011;3875;46.562;4.898;2023-04-28T17:05:05;1.50;;;1.40;;
7665;SDS011;3875;46.562;4.898;2023-04-28T17:07:36;4.10;;;1.47;;
7665;SDS011;3875;46.562;4.898;2023-04-28T17:10:01;3.73;;;1.60;;
7665;SDS011;3875;46.562;4.898;2023-04-28T17:12:27;4.37;;;1.77;;
7665;SDS011;3875;46.562;4.898;2023-04-28T17:14:53;4.17;;;1.70;;
7665;SDS011;3875;46.562;4.898;2023-04-28T17:17:19;1.87;;;1.40;;
7665;SDS011;3875;46.562;4.898;2023-04-28T17:19:44;1.80;;;1.40;;
7665;SDS011;3875;46.562;4.898;2023-04-28T17:22:10;1.90;;;1.30;;
7665;SDS011;3875;46.562;4.898;2023-04-28T17:24:36;4.27;;;2.03;;
7665;SDS011;3875;46.562;4.898;2023-04-28T17:27:02;5.33;;;1.60;;
7665;SDS011;3875;46.562;4.898;2023-04-28T17:29:27;3.30;;;1.43;;
7665;SDS011;3875;46.562;4.898;2023-04-28T17:31:53;1.60;;;1.50;;
7665;SDS011;3875;46.562;4.898;2023-04-28T17:34:19;3.13;;;1.20;;
7665;SDS011;3875;46.562;4.898;2023-04-28T17:36:45;2.80;;;1.23;;
7665;SDS011;3875;46.562;4.898;2023-04-28T17:39:10;1.53;;;1.20;;
7665;SDS011;3875;46.562;4.898;2023-04-28T17:41:37;1.83;;;1.37;;
7665;SDS011;3875;46.562;4.898;2023-04-28T17:44:03;1.67;;;1.57;;
7665;SDS011;3875;46.562;4.898;2023-04-28T17:46:29;3.03;;;1.80;;
7665;SDS011;3875;46.562;4.898;2023-04-28T17:48:54;4.43;;;1.57;;
7665;SDS011;3875;46.562;4.898;2023-04-28T17:51:20;8.00;;;1.80;;
7665;SDS011;3875;46.562;4.898;2023-04-28T17:53:46;5.57;;;1.80;;
7665;SDS011;3875;46.562;4.898;2023-04-28T17:56:13;6.33;;;1.90;;
7665;SDS011;3875;46.562;4.898;2023-04-28T17:58:42;2.57;;;1.77;;
7665;SDS011;3875;46.562;4.898;2023-04-28T18:01:10;6.33;;;1.80;;
7665;SDS011;3875;46.562;4.898;2023-04-28T18:03:44;2.70;;;1.63;;
7665;SDS011;3875;46.562;4.898;2023-04-28T18:06:12;4.40;;;1.80;;
7665;SDS011;3875;46.562;4.898;2023-04-28T18:08:44;2.63;;;1.60;;
7665;SDS011;3875;46.562;4.898;2023-04-28T18:11:13;7.93;;;3.20;;
7665;SDS011;3875;46.562;4.898;2023-04-28T18:13:42;5.50;;;2.67;;
7665;SDS011;3875;46.562;4.898;2023-04-28T18:16:07;7.50;;;2.30;;
7665;SDS011;3875;46.562;4.898;2023-04-28T18:18:38;7.07;;;2.73;;
7665;SDS011;3875;46.562;4.898;2023-04-28T18:21:03;5.57;;;2.77;;
7665;SDS011;3875;46.562;4.898;2023-04-28T18:23:29;3.23;;;2.30;;
7665;SDS011;3875;46.562;4.898;2023-04-28T18:25:55;7.97;;;2.60;;
7665;SDS011;3875;46.562;4.898;2023-04-28T18:28:20;8.50;;;2.40;;
7665;SDS011;3875;46.562;4.898;2023-04-28T18:30:46;6.33;;;2.50;;
7665;SDS011;3875;46.562;4.898;2023-04-28T18:33:12;6.53;;;3.03;;
7665;SDS011;3875;46.562;4.898;2023-04-28T18:35:38;4.67;;;2.47;;
7665;SDS011;3875;46.562;4.898;2023-04-28T18:38:04;3.30;;;2.47;;
7665;SDS011;3875;46.562;4.898;2023-04-28T18:40:31;7.00;;;2.80;;
7665;SDS011;3875;46.562;4.898;2023-04-28T18:42:58;10.73;;;3.60;;
7665;SDS011;3875;46.562;4.898;2023-04-28T18:45:28;7.00;;;3.33;;
7665;SDS011;3875;46.562;4.898;2023-04-28T18:47:55;7.23;;;2.90;;
7665;SDS011;3875;46.562;4.898;2023-04-28T18:50:21;6.90;;;3.00;;
7665;SDS011;3875;46.562;4.898;2023-04-28T18:52:47;6.03;;;3.40;;
7665;SDS011;3875;46.562;4.898;2023-04-28T18:55:13;7.13;;;3.33;;
7665;SDS011;3875;46.562;4.898;2023-04-28T18:57:40;6.03;;;3.77;;
7665;SDS011;3875;46.562;4.898;2023-04-28T19:00:06;7.57;;;3.47;;
7665;SDS011;3875;46.562;4.898;2023-04-28T19:02:33;5.03;;;3.13;;
7665;SDS011;3875;46.562;4.898;2023-04-28T19:05:00;5.37;;;3.37;;
7665;SDS011;3875;46.562;4.898;2023-04-28T19:07:27;11.90;;;3.80;;
7665;SDS011;3875;46.562;4.898;2023-04-28T19:09:52;6.67;;;3.90;;
7665;SDS011;3875;46.562;4.898;2023-04-28T19:12:18;8.87;;;4.00;;
7665;SDS011;3875;46.562;4.898;2023-04-28T19:14:43;5.17;;;3.93;;
7665;SDS011;3875;46.562;4.898;2023-04-28T19:17:09;6.27;;;3.50;;
7665;SDS011;3875;46.562;4.898;2023-04-28T19:19:35;6.43;;;3.17;;
7665;SDS011;3875;46.562;4.898;2023-04-28T19:22:01;6.47;;;3.70;;
7665;SDS011;3875;46.562;4.898;2023-04-28T19:24:27;8.33;;;3.70;;
7665;SDS011;3875;46.562;4.898;2023-04-28T19:26:53;6.60;;;3.87;;
7665;SDS011;3875;46.562;4.898;2023-04-28T19:29:25;6.50;;;3.77;;
7665;SDS011;3875;46.562;4.898;2023-04-28T19:31:50;7.87;;;3.70;;
7665;SDS011;3875;46.562;4.898;2023-04-28T19:34:16;7.87;;;3.10;;
7665;SDS011;3875;46.562;4.898;2023-04-28T19:36:42;7.43;;;3.13;;
7665;SDS011;3875;46.562;4.898;2023-04-28T19:39:08;6.60;;;3.57;;
7665;SDS011;3875;46.562;4.898;2023-04-28T19:41:34;5.17;;;3.57;;
7665;SDS011;3875;46.562;4.898;2023-04-28T19:43:59;9.13;;;4.10;;
7665;SDS011;3875;46.562;4.898;2023-04-28T19:46:25;7.60;;;4.30;;
7665;SDS011;3875;46.562;4.898;2023-04-28T19:48:51;10.37;;;4.63;;
7665;SDS011;3875;46.562;4.898;2023-04-28T19:51:17;7.93;;;4.47;;
7665;SDS011;3875;46.562;4.898;2023-04-28T19:53:43;9.40;;;4.73;;
7665;SDS011;3875;46.562;4.898;2023-04-28T19:56:11;10.13;;;3.97;;
7665;SDS011;3875;46.562;4.898;2023-04-28T19:58:36;9.93;;;4.40;;
7665;SDS011;3875;46.562;4.898;2023-04-28T20:01:06;7.20;;;4.20;;
7665;SDS011;3875;46.562;4.898;2023-04-28T20:03:32;11.57;;;4.50;;
7665;SDS011;3875;46.562;4.898;2023-04-28T20:05:58;4.47;;;3.50;;
7665;SDS011;3875;46.562;4.898;2023-04-28T20:08:24;5.73;;;3.53;;
7665;SDS011;3875;46.562;4.898;2023-04-28T20:10:52;4.33;;;3.80;;